sensor_id;sensor_type;location;lat;lon;timestamp;temperature;humidity
13164;DHT22;6647;53.688;10.746;2023-04-10T00:00:16;7.30;1.00
13164;DHT22;6647;53.688;10.746;2023-04-10T00:01:37;7.30;1.00
13164;DHT22;6647;53.688;10.746;2023-04-10T00:02:59;7.30;1.00
13164;DHT22;6647;53.688;10.746;2023-04-10T00:04:21;7.30;1.00
13164;DHT22;6647;53.688;10.746;2023-04-10T00:05:43;7.30;1.00
13164;DHT22;6647;53.688;10.746;2023-04-10T00:07:03;7.30;1.00
13164;DHT22;6647;53.688;10.746;2023-04-10T00:08:24;7.30;1.00
13164;DHT22;6647;53.688;10.746;2023-04-10T00:09:45;7.30;1.00
13164;DHT22;6647;53.688;10.746;2023-04-10T00:11:06;7.30;1.00
13164;DHT22;6647;53.688;10.746;2023-04-10T00:12:27;7.30;1.00
13164;DHT22;6647;53.688;10.746;2023-04-10T00:13:48;7.30;1.00
13164;DHT22;6647;53.688;10.746;2023-04-10T00:15:09;7.30;1.00
13164;DHT22;6647;53.688;10.746;2023-04-10T00:16:30;7.30;1.00
13164;DHT22;6647;53.688;10.746;2023-04-10T00:17:51;7.30;1.00
13164;DHT22;6647;53.688;10.746;2023-04-10T00:19:14;7.30;1.00
13164;DHT22;6647;53.688;10.746;2023-04-10T00:20:35;7.30;1.00
13164;DHT22;6647;53.688;10.746;2023-04-10T00:21:56;7.30;1.00
13164;DHT22;6647;53.688;10.746;2023-04-10T00:23:17;7.30;1.00
13164;DHT22;6647;53.688;10.746;2023-04-10T00:24:38;7.30;1.00
13164;DHT22;6647;53.688;10.746;2023-04-10T00:26:00;7.30;1.00
13164;DHT22;6647;53.688;10.746;2023-04-10T00:27:21;7.30;1.00
13164;DHT22;6647;53.688;10.746;2023-04-10T00:28:41;7.30;1.00
13164;DHT22;6647;53.688;10.746;2023-04-10T00:30:02;7.30;1.00
13164;DHT22;6647;53.688;10.746;2023-04-10T00:31:23;7.30;1.00
13164;DHT22;6647;53.688;10.746;2023-04-10T00:32:44;7.20;1.00
13164;DHT22;6647;53.688;10.746;2023-04-10T00:34:05;7.30;1.00
13164;DHT22;6647;53.688;10.746;2023-04-10T00:35:26;7.20;1.00
13164;DHT22;6647;53.688;10.746;2023-04-10T00:36:47;7.30;1.00
13164;DHT22;6647;53.688;10.746;2023-04-10T00:38:08;7.30;1.00
13164;DHT22;6647;53.688;10.746;2023-04-10T00:39:29;7.20;1.00
13164;DHT22;6647;53.688;10.746;2023-04-10T00:40:50;7.20;1.00
13164;DHT22;6647;53.688;10.746;2023-04-10T00:42:11;7.20;1.00
13164;DHT22;6647;53.688;10.746;2023-04-10T00:43:32;7.20;1.00
13164;DHT22;6647;53.688;10.746;2023-04-10T00:44:53;7.20;1.00
13164;DHT22;6647;53.688;10.746;2023-04-10T00:46:14;7.20;1.00
13164;DHT22;6647;53.688;10.746;2023-04-10T00:47:36;7.20;1.00
13164;DHT22;6647;53.688;10.746;2023-04-10T00:48:57;7.20;1.00
13164;DHT22;6647;53.688;10.746;2023-04-10T00:50:20;7.20;1.00
13164;DHT22;6647;53.688;10.746;2023-04-10T00:51:41;7.10;1.00
13164;DHT22;6647;53.688;10.746;2023-04-10T00:53:03;7.20;1.00
13164;DHT22;6647;53.688;10.746;2023-04-10T00:54:25;7.10;1.00
13164;DHT22;6647;53.688;10.746;2023-04-10T00:55:46;7.10;1.00
13164;DHT22;6647;53.688;10.746;2023-04-10T00:57:07;7.10;1.00
13164;DHT22;6647;53.688;10.746;2023-04-10T00:58:28;7.10;1.00
13164;DHT22;6647;53.688;10.746;2023-04-10T00:59:49;7.10;1.00
13164;DHT22;6647;53.688;10.746;2023-04-10T01:01:11;7.10;1.00
13164;DHT22;6647;53.688;10.746;2023-04-10T01:02:32;7.10;1.00
13164;DHT22;6647;53.688;10.746;2023-04-10T01:03:53;7.10;1.00
13164;DHT22;6647;53.688;10.746;2023-04-10T01:05:15;7.10;1.00
13164;DHT22;6647;53.688;10.746;2023-04-10T01:06:57;7.10;1.00
13164;DHT22;6647;53.688;10.746;2023-04-10T01:14:15;7.00;1.00
13164;DHT22;6647;53.688;10.746;2023-04-10T01:15:47;7.00;1.00
13164;DHT22;6647;53.688;10.746;2023-04-10T01:17:14;7.00;1.00
13164;DHT22;6647;53.688;10.746;2023-04-10T01:18:42;6.90;1.00
13164;DHT22;6647;53.688;10.746;2023-04-10T01:20:11;6.90;1.00
13164;DHT22;6647;53.688;10.746;2023-04-10T01:21:35;6.90;1.00
13164;DHT22;6647;53.688;10.746;2023-04-10T01:23:19;6.90;1.00
13164;DHT22;6647;53.688;10.746;2023-04-10T01:26:45;6.90;1.00
13164;DHT22;6647;53.688;10.746;2023-04-10T01:29:38;6.90;1.00
13164;DHT22;6647;53.688;10.746;2023-04-10T01:31:01;6.90;1.00
13164;DHT22;6647;53.688;10.746;2023-04-10T01:32:23;6.90;1.00
13164;DHT22;6647;53.688;10.746;2023-04-10T01:33:50;6.80;1.00
13164;DHT22;6647;53.688;10.746;2023-04-10T01:35:14;6.80;1.00
13164;DHT22;6647;53.688;10.746;2023-04-10T01:36:42;6.80;1.00
13164;DHT22;6647;53.688;10.746;2023-04-10T01:38:06;6.90;1.00
13164;DHT22;6647;53.688;10.746;2023-04-10T01:39:29;6.80;1.00
13164;DHT22;6647;53.688;10.746;2023-04-10T01:40:52;6.90;1.00
13164;DHT22;6647;53.688;10.746;2023-04-10T01:42:15;6.90;1.00
13164;DHT22;6647;53.688;10.746;2023-04-10T01:43:39;6.80;1.00
13164;DHT22;6647;53.688;10.746;2023-04-10T01:45:03;6.80;1.00
13164;DHT22;6647;53.688;10.746;2023-04-10T01:46:25;6.80;1.00
13164;DHT22;6647;53.688;10.746;2023-04-10T01:47:47;6.80;1.00
13164;DHT22;6647;53.688;10.746;2023-04-10T01:49:09;6.80;1.00
13164;DHT22;6647;53.688;10.746;2023-04-10T01:50:32;6.80;1.00
13164;DHT22;6647;53.688;10.746;2023-04-10T01:51:55;6.80;1.00
13164;DHT22;6647;53.688;10.746;2023-04-10T01:53:18;6.80;1.00
13164;DHT22;6647;53.688;10.746;2023-04-10T01:54:40;6.70;1.00
13164;DHT22;6647;53.688;10.746;2023-04-10T01:56:03;6.80;1.00
13164;DHT22;6647;53.688;10.746;2023-04-10T01:57:24;6.70;1.00
13164;DHT22;6647;53.688;10.746;2023-04-10T01:58:45;6.80;1.00
13164;DHT22;6647;53.688;10.746;2023-04-10T02:00:07;6.80;1.00
13164;DHT22;6647;53.688;10.746;2023-04-10T02:01:28;6.70;1.00
13164;DHT22;6647;53.688;10.746;2023-04-10T02:02:49;6.70;1.00
13164;DHT22;6647;53.688;10.746;2023-04-10T02:04:11;6.70;1.00
13164;DHT22;6647;53.688;10.746;2023-04-10T02:05:53;6.70;1.00
13164;DHT22;6647;53.688;10.746;2023-04-10T02:07:27;6.70;1.00
13164;DHT22;6647;53.688;10.746;2023-04-10T02:09:07;6.60;1.00
13164;DHT22;6647;53.688;10.746;2023-04-10T02:10:40;6.60;1.00
13164;DHT22;6647;53.688;10.746;2023-04-10T02:12:09;6.60;1.00
13164;DHT22;6647;53.688;10.746;2023-04-10T02:13:34;6.50;1.00
13164;DHT22;6647;53.688;10.746;2023-04-10T02:14:59;6.50;1.00
13164;DHT22;6647;53.688;10.746;2023-04-10T02:16:21;6.50;1.00
13164;DHT22;6647;53.688;10.746;2023-04-10T02:17:43;6.50;1.00
13164;DHT22;6647;53.688;10.746;2023-04-10T02:19:05;6.50;1.00
13164;DHT22;6647;53.688;10.746;2023-04-10T02:20:26;6.50;1.00
13164;DHT22;6647;53.688;10.746;2023-04-10T02:21:47;6.50;1.00
13164;DHT22;6647;53.688;10.746;2023-04-10T02:23:08;6.50;1.00
13164;DHT22;6647;53.688;10.746;2023-04-10T02:24:31;6.50;1.00
13164;DHT22;6647;53.688;10.746;2023-04-10T02:25:53;6.50;1.00
13164;DHT22;6647;53.688;10.746;2023-04-10T02:27:26;6.40;1.00
13164;DHT22;6647;53.688;10.746;2023-04-10T02:28:48;6.50;1.00
13164;DHT22;6647;53.688;10.746;2023-04-10T02:30:09;6.50;1.00
13164;DHT22;6647;53.688;10.746;2023-04-10T02:31:30;6.50;1.00
13164;DHT22;6647;53.688;10.746;2023-04-10T02:32:51;6.50;1.00
13164;DHT22;6647;53.688;10.746;2023-04-10T02:34:12;6.40;1.00
13164;DHT22;6647;53.688;10.746;2023-04-10T02:35:33;6.40;1.00
13164;DHT22;6647;53.688;10.746;2023-04-10T02:36:54;6.40;1.00
13164;DHT22;6647;53.688;10.746;2023-04-10T02:38:15;6.30;1.00
13164;DHT22;6647;53.688;10.746;2023-04-10T02:39:36;6.30;1.00
13164;DHT22;6647;53.688;10.746;2023-04-10T02:40:57;6.30;1.00
13164;DHT22;6647;53.688;10.746;2023-04-10T02:42:17;6.30;1.00
13164;DHT22;6647;53.688;10.746;2023-04-10T02:43:38;6.30;1.00
13164;DHT22;6647;53.688;10.746;2023-04-10T02:45:00;6.30;1.00
13164;DHT22;6647;53.688;10.746;2023-04-10T02:46:21;6.40;1.00
13164;DHT22;6647;53.688;10.746;2023-04-10T02:47:41;6.40;1.00
13164;DHT22;6647;53.688;10.746;2023-04-10T02:49:02;6.30;1.00
13164;DHT22;6647;53.688;10.746;2023-04-10T02:50:23;6.30;1.00
13164;DHT22;6647;53.688;10.746;2023-04-10T02:51:44;6.30;1.00
13164;DHT22;6647;53.688;10.746;2023-04-10T02:53:05;6.30;1.00
13164;DHT22;6647;53.688;10.746;2023-04-10T02:54:26;6.20;1.00
13164;DHT22;6647;53.688;10.746;2023-04-10T02:55:47;6.20;1.00
13164;DHT22;6647;53.688;10.746;2023-04-10T02:57:08;6.20;1.00
13164;DHT22;6647;53.688;10.746;2023-04-10T02:58:29;6.30;1.00
13164;DHT22;6647;53.688;10.746;2023-04-10T02:59:50;6.20;1.00
13164;DHT22;6647;53.688;10.746;2023-04-10T03:01:12;6.20;1.00
13164;DHT22;6647;53.688;10.746;2023-04-10T03:02:33;6.20;1.00
13164;DHT22;6647;53.688;10.746;2023-04-10T03:03:53;6.20;1.00
13164;DHT22;6647;53.688;10.746;2023-04-10T03:05:14;6.20;1.00
13164;DHT22;6647;53.688;10.746;2023-04-10T03:06:35;6.20;1.00
13164;DHT22;6647;53.688;10.746;2023-04-10T03:07:56;6.20;1.00
13164;DHT22;6647;53.688;10.746;2023-04-10T03:09:17;6.20;1.00
13164;DHT22;6647;53.688;10.746;2023-04-10T03:10:38;6.20;1.00
13164;DHT22;6647;53.688;10.746;2023-04-10T03:11:59;6.20;1.00
13164;DHT22;6647;53.688;10.746;2023-04-10T03:13:21;6.20;1.00
13164;DHT22;6647;53.688;10.746;2023-04-10T03:14:45;6.20;1.00
13164;DHT22;6647;53.688;10.746;2023-04-10T03:16:06;6.10;1.00
13164;DHT22;6647;53.688;10.746;2023-04-10T03:17:27;6.10;1.00
13164;DHT22;6647;53.688;10.746;2023-04-10T03:18:48;6.20;1.00
13164;DHT22;6647;53.688;10.746;2023-04-10T03:20:09;6.20;1.00
13164;DHT22;6647;53.688;10.746;2023-04-10T03:21:31;6.20;1.00
13164;DHT22;6647;53.688;10.746;2023-04-10T03:22:52;6.10;1.00
13164;DHT22;6647;53.688;10.746;2023-04-10T03:24:12;6.10;1.00
13164;DHT22;6647;53.688;10.746;2023-04-10T03:25:34;6.10;1.00
13164;DHT22;6647;53.688;10.746;2023-04-10T03:26:55;6.10;1.00
13164;DHT22;6647;53.688;10.746;2023-04-10T03:28:16;6.10;1.00
13164;DHT22;6647;53.688;10.746;2023-04-10T03:29:38;6.10;1.00
13164;DHT22;6647;53.688;10.746;2023-04-10T03:30:59;6.10;1.00
13164;DHT22;6647;53.688;10.746;2023-04-10T03:32:20;6.10;1.00
13164;DHT22;6647;53.688;10.746;2023-04-10T03:33:41;6.10;1.00
13164;DHT22;6647;53.688;10.746;2023-04-10T03:35:01;6.10;1.00
13164;DHT22;6647;53.688;10.746;2023-04-10T03:36:22;6.10;1.00
13164;DHT22;6647;53.688;10.746;2023-04-10T03:37:43;6.00;1.00
13164;DHT22;6647;53.688;10.746;2023-04-10T03:39:04;6.10;1.00
13164;DHT22;6647;53.688;10.746;2023-04-10T03:40:25;6.10;1.00
13164;DHT22;6647;53.688;10.746;2023-04-10T03:41:46;6.10;1.00
13164;DHT22;6647;53.688;10.746;2023-04-10T03:43:07;6.10;1.00
13164;DHT22;6647;53.688;10.746;2023-04-10T03:44:28;6.00;1.00
13164;DHT22;6647;53.688;10.746;2023-04-10T03:45:49;6.00;1.00
13164;DHT22;6647;53.688;10.746;2023-04-10T03:47:10;6.00;1.00
13164;DHT22;6647;53.688;10.746;2023-04-10T03:48:31;6.00;1.00
13164;DHT22;6647;53.688;10.746;2023-04-10T03:49:53;6.00;1.00
13164;DHT22;6647;53.688;10.746;2023-04-10T03:51:14;6.00;1.00
13164;DHT22;6647;53.688;10.746;2023-04-10T03:52:35;6.00;1.00
13164;DHT22;6647;53.688;10.746;2023-04-10T03:53:56;6.00;1.00
13164;DHT22;6647;53.688;10.746;2023-04-10T03:55:16;6.00;1.00
13164;DHT22;6647;53.688;10.746;2023-04-10T03:56:38;6.00;1.00
13164;DHT22;6647;53.688;10.746;2023-04-10T03:57:59;6.00;1.00
13164;DHT22;6647;53.688;10.746;2023-04-10T03:59:20;6.00;1.00
13164;DHT22;6647;53.688;10.746;2023-04-10T04:00:41;5.90;1.00
13164;DHT22;6647;53.688;10.746;2023-04-10T04:02:02;5.90;1.00
13164;DHT22;6647;53.688;10.746;2023-04-10T04:03:23;5.90;1.00
13164;DHT22;6647;53.688;10.746;2023-04-10T04:04:44;5.90;1.00
13164;DHT22;6647;53.688;10.746;2023-04-10T04:06:05;5.90;1.00
13164;DHT22;6647;53.688;10.746;2023-04-10T04:07:26;5.90;1.00
13164;DHT22;6647;53.688;10.746;2023-04-10T04:08:47;5.90;1.00
13164;DHT22;6647;53.688;10.746;2023-04-10T04:10:08;5.90;1.00
13164;DHT22;6647;53.688;10.746;2023-04-10T04:11:29;5.90;1.00
13164;DHT22;6647;53.688;10.746;2023-04-10T04:12:51;5.90;1.00
13164;DHT22;6647;53.688;10.746;2023-04-10T04:14:12;5.90;1.00
13164;DHT22;6647;53.688;10.746;2023-04-10T04:15:32;5.90;1.00
13164;DHT22;6647;53.688;10.746;2023-04-10T04:16:53;5.90;1.00
13164;DHT22;6647;53.688;10.746;2023-04-10T04:18:14;5.90;1.00
13164;DHT22;6647;53.688;10.746;2023-04-10T04:19:35;5.90;1.00
13164;DHT22;6647;53.688;10.746;2023-04-10T04:20:56;5.90;1.00
13164;DHT22;6647;53.688;10.746;2023-04-10T04:22:17;5.90;1.00
13164;DHT22;6647;53.688;10.746;2023-04-10T04:23:38;5.90;1.00
13164;DHT22;6647;53.688;10.746;2023-04-10T04:24:59;5.90;1.00
13164;DHT22;6647;53.688;10.746;2023-04-10T04:26:20;5.90;1.00
13164;DHT22;6647;53.688;10.746;2023-04-10T04:27:41;5.90;1.00
13164;DHT22;6647;53.688;10.746;2023-04-10T04:29:01;5.90;1.00
13164;DHT22;6647;53.688;10.746;2023-04-10T04:30:22;5.90;1.00
13164;DHT22;6647;53.688;10.746;2023-04-10T04:31:43;5.90;1.00
13164;DHT22;6647;53.688;10.746;2023-04-10T04:33:04;5.90;1.00
13164;DHT22;6647;53.688;10.746;2023-04-10T04:34:25;5.90;1.00
13164;DHT22;6647;53.688;10.746;2023-04-10T04:35:46;5.90;1.00
13164;DHT22;6647;53.688;10.746;2023-04-10T04:37:07;5.90;1.00
13164;DHT22;6647;53.688;10.746;2023-04-10T04:38:27;5.90;1.00
13164;DHT22;6647;53.688;10.746;2023-04-10T04:39:48;5.90;1.00
13164;DHT22;6647;53.688;10.746;2023-04-10T04:41:09;5.90;1.00
13164;DHT22;6647;53.688;10.746;2023-04-10T04:42:30;5.80;1.00
13164;DHT22;6647;53.688;10.746;2023-04-10T04:43:51;5.80;1.00
13164;DHT22;6647;53.688;10.746;2023-04-10T04:45:12;5.80;1.00
13164;DHT22;6647;53.688;10.746;2023-04-10T04:46:33;5.80;1.00
13164;DHT22;6647;53.688;10.746;2023-04-10T04:47:54;5.80;1.00
13164;DHT22;6647;53.688;10.746;2023-04-10T04:49:15;5.80;1.00
13164;DHT22;6647;53.688;10.746;2023-04-10T04:50:39;5.80;1.00
13164;DHT22;6647;53.688;10.746;2023-04-10T04:52:00;5.80;1.00
13164;DHT22;6647;53.688;10.746;2023-04-10T04:53:21;5.80;1.00
13164;DHT22;6647;53.688;10.746;2023-04-10T04:54:42;5.80;1.00
13164;DHT22;6647;53.688;10.746;2023-04-10T04:56:03;5.70;1.00
13164;DHT22;6647;53.688;10.746;2023-04-10T04:57:24;5.80;1.00
13164;DHT22;6647;53.688;10.746;2023-04-10T04:58:45;5.80;1.00
13164;DHT22;6647;53.688;10.746;2023-04-10T05:00:06;5.70;1.00
13164;DHT22;6647;53.688;10.746;2023-04-10T05:01:27;5.70;1.00
13164;DHT22;6647;53.688;10.746;2023-04-10T05:02:48;5.70;1.00
13164;DHT22;6647;53.688;10.746;2023-04-10T05:04:09;5.70;1.00
13164;DHT22;6647;53.688;10.746;2023-04-10T05:05:30;5.80;1.00
13164;DHT22;6647;53.688;10.746;2023-04-10T05:06:51;5.80;1.00
13164;DHT22;6647;53.688;10.746;2023-04-10T05:08:12;5.80;1.00
13164;DHT22;6647;53.688;10.746;2023-04-10T05:09:32;5.70;1.00
13164;DHT22;6647;53.688;10.746;2023-04-10T05:10:53;5.70;1.00
13164;DHT22;6647;53.688;10.746;2023-04-10T05:12:14;5.70;1.00
13164;DHT22;6647;53.688;10.746;2023-04-10T05:13:35;5.70;1.00
13164;DHT22;6647;53.688;10.746;2023-04-10T05:14:56;5.70;1.00
13164;DHT22;6647;53.688;10.746;2023-04-10T05:16:17;5.70;1.00
13164;DHT22;6647;53.688;10.746;2023-04-10T05:17:38;5.70;1.00
13164;DHT22;6647;53.688;10.746;2023-04-10T05:18:59;5.70;1.00
13164;DHT22;6647;53.688;10.746;2023-04-10T05:20:20;5.80;1.00
13164;DHT22;6647;53.688;10.746;2023-04-10T05:21:44;5.80;1.00
13164;DHT22;6647;53.688;10.746;2023-04-10T05:23:05;5.80;1.00
13164;DHT22;6647;53.688;10.746;2023-04-10T05:24:26;5.80;1.00
13164;DHT22;6647;53.688;10.746;2023-04-10T05:25:47;5.80;1.00
13164;DHT22;6647;53.688;10.746;2023-04-10T05:27:08;5.90;1.00
13164;DHT22;6647;53.688;10.746;2023-04-10T05:28:29;5.80;1.00
13164;DHT22;6647;53.688;10.746;2023-04-10T05:29:50;5.80;1.00
13164;DHT22;6647;53.688;10.746;2023-04-10T05:31:11;5.80;1.00
13164;DHT22;6647;53.688;10.746;2023-04-10T05:32:32;5.90;1.00
13164;DHT22;6647;53.688;10.746;2023-04-10T05:33:52;5.90;1.00
13164;DHT22;6647;53.688;10.746;2023-04-10T05:35:13;5.80;1.00
13164;DHT22;6647;53.688;10.746;2023-04-10T05:36:35;5.80;1.00
13164;DHT22;6647;53.688;10.746;2023-04-10T05:37:56;5.80;1.00
13164;DHT22;6647;53.688;10.746;2023-04-10T05:39:18;5.80;1.00
13164;DHT22;6647;53.688;10.746;2023-04-10T05:40:39;5.80;1.00
13164;DHT22;6647;53.688;10.746;2023-04-10T05:42:00;5.80;1.00
13164;DHT22;6647;53.688;10.746;2023-04-10T05:43:21;5.80;1.00
13164;DHT22;6647;53.688;10.746;2023-04-10T05:44:43;5.80;1.00
13164;DHT22;6647;53.688;10.746;2023-04-10T05:46:05;5.90;1.00
13164;DHT22;6647;53.688;10.746;2023-04-10T05:47:26;5.90;1.00
13164;DHT22;6647;53.688;10.746;2023-04-10T05:48:47;5.90;1.00
13164;DHT22;6647;53.688;10.746;2023-04-10T05:50:09;5.90;1.00
13164;DHT22;6647;53.688;10.746;2023-04-10T05:51:30;5.90;1.00
13164;DHT22;6647;53.688;10.746;2023-04-10T05:52:51;5.90;1.00
13164;DHT22;6647;53.688;10.746;2023-04-10T05:54:12;5.90;1.00
13164;DHT22;6647;53.688;10.746;2023-04-10T05:55:33;5.90;1.00
13164;DHT22;6647;53.688;10.746;2023-04-10T05:56:54;5.90;1.00
13164;DHT22;6647;53.688;10.746;2023-04-10T05:58:16;6.00;1.00
13164;DHT22;6647;53.688;10.746;2023-04-10T05:59:36;6.00;1.00
13164;DHT22;6647;53.688;10.746;2023-04-10T06:00:57;6.00;1.00
13164;DHT22;6647;53.688;10.746;2023-04-10T06:02:18;6.00;1.00
13164;DHT22;6647;53.688;10.746;2023-04-10T06:03:39;6.00;1.00
13164;DHT22;6647;53.688;10.746;2023-04-10T06:05:00;6.00;1.00
13164;DHT22;6647;53.688;10.746;2023-04-10T06:06:21;6.00;1.00
13164;DHT22;6647;53.688;10.746;2023-04-10T06:07:44;6.00;1.00
13164;DHT22;6647;53.688;10.746;2023-04-10T06:09:04;6.10;1.00
13164;DHT22;6647;53.688;10.746;2023-04-10T06:10:28;6.10;1.00
13164;DHT22;6647;53.688;10.746;2023-04-10T06:11:49;6.10;1.00
13164;DHT22;6647;53.688;10.746;2023-04-10T06:13:10;6.10;1.00
13164;DHT22;6647;53.688;10.746;2023-04-10T06:14:31;6.10;1.00
13164;DHT22;6647;53.688;10.746;2023-04-10T06:15:52;6.10;1.00
13164;DHT22;6647;53.688;10.746;2023-04-10T06:17:13;6.10;1.00
13164;DHT22;6647;53.688;10.746;2023-04-10T06:18:34;6.20;1.00
13164;DHT22;6647;53.688;10.746;2023-04-10T06:19:55;6.20;1.00
13164;DHT22;6647;53.688;10.746;2023-04-10T06:21:16;6.20;1.00
13164;DHT22;6647;53.688;10.746;2023-04-10T06:22:37;6.20;1.00
13164;DHT22;6647;53.688;10.746;2023-04-10T06:23:58;6.20;1.00
13164;DHT22;6647;53.688;10.746;2023-04-10T06:25:19;6.30;1.00
13164;DHT22;6647;53.688;10.746;2023-04-10T06:26:40;6.30;1.00
13164;DHT22;6647;53.688;10.746;2023-04-10T06:28:01;6.30;1.00
13164;DHT22;6647;53.688;10.746;2023-04-10T06:29:22;6.30;1.00
13164;DHT22;6647;53.688;10.746;2023-04-10T06:30:43;6.40;1.00
13164;DHT22;6647;53.688;10.746;2023-04-10T06:32:04;6.40;1.00
13164;DHT22;6647;53.688;10.746;2023-04-10T06:33:25;6.40;1.00
13164;DHT22;6647;53.688;10.746;2023-04-10T06:34:46;6.50;1.00
13164;DHT22;6647;53.688;10.746;2023-04-10T06:36:07;6.50;1.00
13164;DHT22;6647;53.688;10.746;2023-04-10T06:37:29;6.50;1.00
13164;DHT22;6647;53.688;10.746;2023-04-10T06:38:53;6.60;1.00
13164;DHT22;6647;53.688;10.746;2023-04-10T06:40:14;6.60;1.00
13164;DHT22;6647;53.688;10.746;2023-04-10T06:41:35;6.70;1.00
13164;DHT22;6647;53.688;10.746;2023-04-10T06:42:56;6.70;1.00
13164;DHT22;6647;53.688;10.746;2023-04-10T06:44:17;6.80;1.00
13164;DHT22;6647;53.688;10.746;2023-04-10T06:45:38;6.80;1.00
13164;DHT22;6647;53.688;10.746;2023-04-10T06:46:59;6.80;1.00
13164;DHT22;6647;53.688;10.746;2023-04-10T06:48:20;6.90;1.00
13164;DHT22;6647;53.688;10.746;2023-04-10T06:49:40;6.90;1.00
13164;DHT22;6647;53.688;10.746;2023-04-10T06:51:01;7.00;1.00
13164;DHT22;6647;53.688;10.746;2023-04-10T06:52:22;7.00;1.00
13164;DHT22;6647;53.688;10.746;2023-04-10T06:53:43;7.10;1.00
13164;DHT22;6647;53.688;10.746;2023-04-10T06:55:04;7.10;1.00
13164;DHT22;6647;53.688;10.746;2023-04-10T06:56:25;7.20;1.00
13164;DHT22;6647;53.688;10.746;2023-04-10T06:57:46;7.20;1.00
13164;DHT22;6647;53.688;10.746;2023-04-10T06:59:07;7.20;1.00
13164;DHT22;6647;53.688;10.746;2023-04-10T07:00:29;7.30;1.00
13164;DHT22;6647;53.688;10.746;2023-04-10T07:01:50;7.30;1.00
13164;DHT22;6647;53.688;10.746;2023-04-10T07:03:11;7.40;1.00
13164;DHT22;6647;53.688;10.746;2023-04-10T07:04:31;7.40;1.00
13164;DHT22;6647;53.688;10.746;2023-04-10T07:05:52;7.40;1.00
13164;DHT22;6647;53.688;10.746;2023-04-10T07:07:13;7.50;1.00
13164;DHT22;6647;53.688;10.746;2023-04-10T07:08:35;7.50;1.00
13164;DHT22;6647;53.688;10.746;2023-04-10T07:09:56;7.50;1.00
13164;DHT22;6647;53.688;10.746;2023-04-10T07:11:18;7.60;1.00
13164;DHT22;6647;53.688;10.746;2023-04-10T07:12:38;7.60;1.00
13164;DHT22;6647;53.688;10.746;2023-04-10T07:13:59;7.60;1.00
13164;DHT22;6647;53.688;10.746;2023-04-10T07:15:20;7.70;1.00
13164;DHT22;6647;53.688;10.746;2023-04-10T07:16:41;7.70;1.00
13164;DHT22;6647;53.688;10.746;2023-04-10T07:18:02;7.80;1.00
13164;DHT22;6647;53.688;10.746;2023-04-10T07:19:23;7.80;1.00
13164;DHT22;6647;53.688;10.746;2023-04-10T07:20:44;7.80;1.00
13164;DHT22;6647;53.688;10.746;2023-04-10T07:22:04;7.90;1.00
13164;DHT22;6647;53.688;10.746;2023-04-10T07:23:25;7.90;1.00
13164;DHT22;6647;53.688;10.746;2023-04-10T07:24:47;7.90;1.00
13164;DHT22;6647;53.688;10.746;2023-04-10T07:26:07;8.00;1.00
13164;DHT22;6647;53.688;10.746;2023-04-10T07:27:28;8.00;1.00
13164;DHT22;6647;53.688;10.746;2023-04-10T07:28:49;8.10;1.00
13164;DHT22;6647;53.688;10.746;2023-04-10T07:30:11;8.10;1.00
13164;DHT22;6647;53.688;10.746;2023-04-10T07:31:31;8.10;1.00
13164;DHT22;6647;53.688;10.746;2023-04-10T07:32:52;8.20;1.00
13164;DHT22;6647;53.688;10.746;2023-04-10T07:34:13;8.20;1.00
13164;DHT22;6647;53.688;10.746;2023-04-10T07:35:34;8.20;1.00
13164;DHT22;6647;53.688;10.746;2023-04-10T07:36:56;8.30;1.00
13164;DHT22;6647;53.688;10.746;2023-04-10T07:38:17;8.30;1.00
13164;DHT22;6647;53.688;10.746;2023-04-10T07:39:38;8.30;1.00
13164;DHT22;6647;53.688;10.746;2023-04-10T07:40:59;8.40;1.00
13164;DHT22;6647;53.688;10.746;2023-04-10T07:42:20;8.40;1.00
13164;DHT22;6647;53.688;10.746;2023-04-10T07:43:42;8.40;1.00
13164;DHT22;6647;53.688;10.746;2023-04-10T07:45:03;8.50;1.00
13164;DHT22;6647;53.688;10.746;2023-04-10T07:46:24;8.50;1.00
13164;DHT22;6647;53.688;10.746;2023-04-10T07:47:47;8.60;1.00
13164;DHT22;6647;53.688;10.746;2023-04-10T07:49:07;8.60;1.00
13164;DHT22;6647;53.688;10.746;2023-04-10T07:50:28;8.60;1.00
13164;DHT22;6647;53.688;10.746;2023-04-10T07:51:50;8.70;1.00
13164;DHT22;6647;53.688;10.746;2023-04-10T07:53:11;8.80;1.00
13164;DHT22;6647;53.688;10.746;2023-04-10T07:54:32;8.80;1.00
13164;DHT22;6647;53.688;10.746;2023-04-10T07:55:53;8.80;1.00
13164;DHT22;6647;53.688;10.746;2023-04-10T07:57:14;8.90;1.00
13164;DHT22;6647;53.688;10.746;2023-04-10T07:58:36;8.90;1.00
13164;DHT22;6647;53.688;10.746;2023-04-10T07:59:57;9.00;1.00
13164;DHT22;6647;53.688;10.746;2023-04-10T08:01:18;9.00;1.00
13164;DHT22;6647;53.688;10.746;2023-04-10T08:02:39;9.10;1.00
13164;DHT22;6647;53.688;10.746;2023-04-10T08:04:01;9.10;1.00
13164;DHT22;6647;53.688;10.746;2023-04-10T08:05:22;9.20;1.00
13164;DHT22;6647;53.688;10.746;2023-04-10T08:06:43;9.30;1.00
13164;DHT22;6647;53.688;10.746;2023-04-10T08:08:04;9.30;1.00
13164;DHT22;6647;53.688;10.746;2023-04-10T08:09:25;9.30;1.00
13164;DHT22;6647;53.688;10.746;2023-04-10T08:10:46;9.40;1.00
13164;DHT22;6647;53.688;10.746;2023-04-10T08:12:08;9.50;1.00
13164;DHT22;6647;53.688;10.746;2023-04-10T08:13:29;9.50;1.00
13164;DHT22;6647;53.688;10.746;2023-04-10T08:14:50;9.50;1.00
13164;DHT22;6647;53.688;10.746;2023-04-10T08:16:11;9.60;1.00
13164;DHT22;6647;53.688;10.746;2023-04-10T08:17:32;9.70;1.00
13164;DHT22;6647;53.688;10.746;2023-04-10T08:18:54;9.70;1.00
13164;DHT22;6647;53.688;10.746;2023-04-10T08:20:15;9.80;1.00
13164;DHT22;6647;53.688;10.746;2023-04-10T08:21:36;9.90;1.00
13164;DHT22;6647;53.688;10.746;2023-04-10T08:22:56;9.90;1.00
13164;DHT22;6647;53.688;10.746;2023-04-10T08:24:17;10.00;1.00
13164;DHT22;6647;53.688;10.746;2023-04-10T08:25:39;10.10;1.00
13164;DHT22;6647;53.688;10.746;2023-04-10T08:27:00;10.10;1.00
13164;DHT22;6647;53.688;10.746;2023-04-10T08:28:21;10.20;1.00
13164;DHT22;6647;53.688;10.746;2023-04-10T08:29:42;10.30;1.00
13164;DHT22;6647;53.688;10.746;2023-04-10T08:31:03;10.30;1.00
13164;DHT22;6647;53.688;10.746;2023-04-10T08:32:24;10.40;1.00
13164;DHT22;6647;53.688;10.746;2023-04-10T08:33:46;10.40;1.00
13164;DHT22;6647;53.688;10.746;2023-04-10T08:35:07;10.50;1.00
13164;DHT22;6647;53.688;10.746;2023-04-10T08:36:28;10.50;1.00
13164;DHT22;6647;53.688;10.746;2023-04-10T08:37:49;10.60;1.00
13164;DHT22;6647;53.688;10.746;2023-04-10T08:39:10;10.60;1.00
13164;DHT22;6647;53.688;10.746;2023-04-10T08:40:31;10.70;1.00
13164;DHT22;6647;53.688;10.746;2023-04-10T08:41:57;10.80;1.00
13164;DHT22;6647;53.688;10.746;2023-04-10T08:43:18;10.80;1.00
13164;DHT22;6647;53.688;10.746;2023-04-10T08:44:39;10.90;1.00
13164;DHT22;6647;53.688;10.746;2023-04-10T08:46:01;11.00;1.00
13164;DHT22;6647;53.688;10.746;2023-04-10T08:47:26;11.00;1.00
13164;DHT22;6647;53.688;10.746;2023-04-10T08:49:03;11.10;1.00
13164;DHT22;6647;53.688;10.746;2023-04-10T08:50:25;11.20;1.00
13164;DHT22;6647;53.688;10.746;2023-04-10T08:51:57;11.20;1.00
13164;DHT22;6647;53.688;10.746;2023-04-10T08:53:19;11.30;1.00
13164;DHT22;6647;53.688;10.746;2023-04-10T08:54:47;11.40;1.00
13164;DHT22;6647;53.688;10.746;2023-04-10T08:56:12;11.50;1.00
13164;DHT22;6647;53.688;10.746;2023-04-10T08:57:37;11.50;1.00
13164;DHT22;6647;53.688;10.746;2023-04-10T08:58:58;11.60;1.00
13164;DHT22;6647;53.688;10.746;2023-04-10T09:00:19;11.70;1.00
13164;DHT22;6647;53.688;10.746;2023-04-10T09:01:40;11.80;1.00